sensor_id;sensor_type;location;lat;lon;timestamp;temperature;humidity
322;DHT22;148;51.480;7.208;2024-02-16T17:19:10;13.10;99.90
322;DHT22;148;51.480;7.208;2024-02-16T17:21:36;14.40;99.90
322;DHT22;148;51.480;7.208;2024-02-16T17:24:02;14.30;99.90
322;DHT22;148;51.480;7.208;2024-02-16T17:26:28;14.20;99.90
322;DHT22;148;51.480;7.208;2024-02-16T17:28:53;14.40;99.90
322;DHT22;148;51.480;7.208;2024-02-16T17:31:19;14.50;99.90
322;DHT22;148;51.480;7.208;2024-02-16T17:33:45;14.30;99.90
322;DHT22;148;51.480;7.208;2024-02-16T17:36:11;14.20;99.90
322;DHT22;148;51.480;7.208;2024-02-16T17:38:38;14.20;99.90
322;DHT22;148;51.480;7.208;2024-02-16T17:41:04;14.10;99.90
322;DHT22;148;51.480;7.208;2024-02-16T17:43:29;14.10;99.90
322;DHT22;148;51.480;7.208;2024-02-16T17:45:57;14.10;99.90
322;DHT22;148;51.480;7.208;2024-02-16T17:48:23;14.30;99.90
322;DHT22;148;51.480;7.208;2024-02-16T17:50:52;14.30;99.90
322;DHT22;148;51.480;7.208;2024-02-16T17:53:18;14.40;99.90
322;DHT22;148;51.480;7.208;2024-02-16T17:55:43;14.40;99.90
322;DHT22;148;51.480;7.208;2024-02-16T17:58:09;14.60;99.90
322;DHT22;148;51.480;7.208;2024-02-16T18:00:35;14.60;99.90
322;DHT22;148;51.480;7.208;2024-02-16T18:03:01;14.80;99.90
322;DHT22;148;51.480;7.208;2024-02-16T18:05:27;14.70;99.90
322;DHT22;148;51.480;7.208;2024-02-16T18:07:52;14.70;99.90
322;DHT22;148;51.480;7.208;2024-02-16T18:10:18;14.70;99.90
322;DHT22;148;51.480;7.208;2024-02-16T18:12:46;14.70;99.90
322;DHT22;148;51.480;7.208;2024-02-16T18:15:11;14.80;99.90
322;DHT22;148;51.480;7.208;2024-02-16T18:17:38;14.80;99.90
322;DHT22;148;51.480;7.208;2024-02-16T18:20:04;15.00;99.90
322;DHT22;148;51.480;7.208;2024-02-16T18:22:29;15.00;99.90
322;DHT22;148;51.480;7.208;2024-02-16T18:24:55;14.90;99.90
322;DHT22;148;51.480;7.208;2024-02-16T18:27:21;15.00;99.90
322;DHT22;148;51.480;7.208;2024-02-16T18:29:47;15.00;99.90
322;DHT22;148;51.480;7.208;2024-02-16T18:32:13;15.00;99.90
322;DHT22;148;51.480;7.208;2024-02-16T18:34:38;15.00;99.90
322;DHT22;148;51.480;7.208;2024-02-16T18:37:04;15.10;99.90
322;DHT22;148;51.480;7.208;2024-02-16T18:39:29;15.20;99.90
322;DHT22;148;51.480;7.208;2024-02-16T18:41:55;15.10;99.90
322;DHT22;148;51.480;7.208;2024-02-16T18:44:20;15.00;99.90
322;DHT22;148;51.480;7.208;2024-02-16T18:46:46;15.20;99.90
322;DHT22;148;51.480;7.208;2024-02-16T18:49:12;15.20;99.90
322;DHT22;148;51.480;7.208;2024-02-16T18:51:38;15.00;99.90
322;DHT22;148;51.480;7.208;2024-02-16T18:54:03;15.10;99.90
322;DHT22;148;51.480;7.208;2024-02-16T18:56:31;15.20;99.90
322;DHT22;148;51.480;7.208;2024-02-16T18:58:56;15.30;99.90
322;DHT22;148;51.480;7.208;2024-02-16T19:01:23;15.30;99.90
322;DHT22;148;51.480;7.208;2024-02-16T19:03:48;15.40;99.90
322;DHT22;148;51.480;7.208;2024-02-16T19:06:14;15.40;99.90
322;DHT22;148;51.480;7.208;2024-02-16T19:08:39;15.30;99.90
322;DHT22;148;51.480;7.208;2024-02-16T19:11:05;15.40;99.90
322;DHT22;148;51.480;7.208;2024-02-16T19:13:31;15.30;99.90
322;DHT22;148;51.480;7.208;2024-02-16T19:15:57;15.20;99.90
322;DHT22;148;51.480;7.208;2024-02-16T19:18:25;15.20;99.90
322;DHT22;148;51.480;7.208;2024-02-16T19:20:51;15.20;99.90
322;DHT22;148;51.480;7.208;2024-02-16T19:23:19;15.10;99.90
322;DHT22;148;51.480;7.208;2024-02-16T19:25:45;15.10;99.90
322;DHT22;148;51.480;7.208;2024-02-16T19:28:10;15.10;99.90
322;DHT22;148;51.480;7.208;2024-02-16T19:30:36;15.10;99.90
322;DHT22;148;51.480;7.208;2024-02-16T19:33:02;15.00;99.90
322;DHT22;148;51.480;7.208;2024-02-16T19:35:27;15.00;99.90
322;DHT22;148;51.480;7.208;2024-02-16T19:37:53;14.90;99.90
322;DHT22;148;51.480;7.208;2024-02-16T19:40:19;14.90;99.90
322;DHT22;148;51.480;7.208;2024-02-16T19:42:44;14.80;99.90
322;DHT22;148;51.480;7.208;2024-02-16T19:45:10;14.70;99.90
322;DHT22;148;51.480;7.208;2024-02-16T19:47:37;14.80;99.90
322;DHT22;148;51.480;7.208;2024-02-16T19:50:04;14.90;99.90
322;DHT22;148;51.480;7.208;2024-02-16T19:52:30;14.90;99.90
322;DHT22;148;51.480;7.208;2024-02-16T19:54:56;15.00;99.90
322;DHT22;148;51.480;7.208;2024-02-16T19:57:24;15.00;99.90
322;DHT22;148;51.480;7.208;2024-02-16T19:59:49;15.00;99.90
322;DHT22;148;51.480;7.208;2024-02-16T20:02:15;15.00;99.90
322;DHT22;148;51.480;7.208;2024-02-16T20:04:41;15.00;99.90
322;DHT22;148;51.480;7.208;2024-02-16T20:07:06;15.00;99.90
322;DHT22;148;51.480;7.208;2024-02-16T20:09:32;15.00;99.90
322;DHT22;148;51.480;7.208;2024-02-16T20:11:59;15.00;99.90
322;DHT22;148;51.480;7.208;2024-02-16T20:14:25;15.00;99.90
322;DHT22;148;51.480;7.208;2024-02-16T20:16:50;15.10;99.90
322;DHT22;148;51.480;7.208;2024-02-16T20:19:16;15.00;99.90
322;DHT22;148;51.480;7.208;2024-02-16T20:21:42;14.90;99.90
322;DHT22;148;51.480;7.208;2024-02-16T20:24:07;14.90;99.90
322;DHT22;148;51.480;7.208;2024-02-16T20:26:33;14.90;99.90
322;DHT22;148;51.480;7.208;2024-02-16T20:28:59;14.90;99.90
322;DHT22;148;51.480;7.208;2024-02-16T20:31:30;14.90;99.90
322;DHT22;148;51.480;7.208;2024-02-16T20:33:56;14.90;99.90
322;DHT22;148;51.480;7.208;2024-02-16T20:36:21;14.90;99.90
322;DHT22;148;51.480;7.208;2024-02-16T20:38:48;14.90;99.90
322;DHT22;148;51.480;7.208;2024-02-16T20:41:15;14.90;99.90
322;DHT22;148;51.480;7.208;2024-02-16T20:43:40;14.80;99.90
322;DHT22;148;51.480;7.208;2024-02-16T20:46:06;14.80;99.90
322;DHT22;148;51.480;7.208;2024-02-16T20:48:33;14.90;99.90
322;DHT22;148;51.480;7.208;2024-02-16T20:51:00;14.80;99.90
322;DHT22;148;51.480;7.208;2024-02-16T20:53:26;14.90;99.90
322;DHT22;148;51.480;7.208;2024-02-16T20:55:54;14.80;99.90
322;DHT22;148;51.480;7.208;2024-02-16T20:58:20;14.90;99.90
322;DHT22;148;51.480;7.208;2024-02-16T21:00:47;14.90;99.90
322;DHT22;148;51.480;7.208;2024-02-16T21:03:13;14.80;99.90
322;DHT22;148;51.480;7.208;2024-02-16T21:05:38;14.80;99.90
322;DHT22;148;51.480;7.208;2024-02-16T21:08:04;14.70;99.90
322;DHT22;148;51.480;7.208;2024-02-16T21:10:30;14.70;99.90
322;DHT22;148;51.480;7.208;2024-02-16T21:12:56;14.70;99.90
322;DHT22;148;51.480;7.208;2024-02-16T21:15:21;14.80;99.90
322;DHT22;148;51.480;7.208;2024-02-16T21:17:49;14.70;99.90
322;DHT22;148;51.480;7.208;2024-02-16T21:20:15;14.80;99.90
322;DHT22;148;51.480;7.208;2024-02-16T21:22:41;14.80;99.90
322;DHT22;148;51.480;7.208;2024-02-16T21:25:07;14.80;99.90
322;DHT22;148;51.480;7.208;2024-02-16T21:27:33;14.80;99.90
322;DHT22;148;51.480;7.208;2024-02-16T21:30:00;14.80;99.90
322;DHT22;148;51.480;7.208;2024-02-16T21:32:26;14.80;99.90
322;DHT22;148;51.480;7.208;2024-02-16T21:34:55;14.80;99.90
322;DHT22;148;51.480;7.208;2024-02-16T21:37:22;14.80;99.90
322;DHT22;148;51.480;7.208;2024-02-16T21:39:47;14.80;99.90
322;DHT22;148;51.480;7.208;2024-02-16T21:42:13;14.80;99.90
322;DHT22;148;51.480;7.208;2024-02-16T21:44:41;14.70;99.90
322;DHT22;148;51.480;7.208;2024-02-16T21:47:07;14.70;99.90
322;DHT22;148;51.480;7.208;2024-02-16T21:49:34;14.70;99.90
322;DHT22;148;51.480;7.208;2024-02-16T21:52:00;14.80;99.90
322;DHT22;148;51.480;7.208;2024-02-16T21:54:26;14.70;99.90
322;DHT22;148;51.480;7.208;2024-02-16T21:56:51;14.80;99.90
322;DHT22;148;51.480;7.208;2024-02-16T21:59:17;14.70;99.90
322;DHT22;148;51.480;7.208;2024-02-16T22:01:42;14.70;99.90
322;DHT22;148;51.480;7.208;2024-02-16T22:04:08;14.60;99.90
322;DHT22;148;51.480;7.208;2024-02-16T22:06:34;14.70;99.90
322;DHT22;148;51.480;7.208;2024-02-16T22:08:59;14.60;99.90
322;DHT22;148;51.480;7.208;2024-02-16T22:11:25;14.40;99.90
322;DHT22;148;51.480;7.208;2024-02-16T22:13:52;14.30;99.90
322;DHT22;148;51.480;7.208;2024-02-16T22:16:18;14.30;99.90
322;DHT22;148;51.480;7.208;2024-02-16T22:18:44;14.30;99.90
322;DHT22;148;51.480;7.208;2024-02-16T22:21:12;14.40;99.90
322;DHT22;148;51.480;7.208;2024-02-16T22:23:38;14.30;99.90
322;DHT22;148;51.480;7.208;2024-02-16T22:26:04;14.30;99.90
322;DHT22;148;51.480;7.208;2024-02-16T22:28:30;14.30;99.90
322;DHT22;148;51.480;7.208;2024-02-16T22:30:56;14.40;99.90
322;DHT22;148;51.480;7.208;2024-02-16T22:33:22;14.30;99.90
322;DHT22;148;51.480;7.208;2024-02-16T22:35:49;14.30;99.90
322;DHT22;148;51.480;7.208;2024-02-16T22:38:14;14.30;99.90
322;DHT22;148;51.480;7.208;2024-02-16T22:40:40;14.30;99.90
322;DHT22;148;51.480;7.208;2024-02-16T22:43:05;14.30;99.90
322;DHT22;148;51.480;7.208;2024-02-16T22:45:31;14.20;99.90
322;DHT22;148;51.480;7.208;2024-02-16T22:47:58;14.30;99.90
322;DHT22;148;51.480;7.208;2024-02-16T22:50:24;14.20;99.90
322;DHT22;148;51.480;7.208;2024-02-16T22:52:50;14.10;99.90
322;DHT22;148;51.480;7.208;2024-02-16T22:55:18;14.00;99.90
322;DHT22;148;51.480;7.208;2024-02-16T22:57:44;14.00;99.90
322;DHT22;148;51.480;7.208;2024-02-16T23:00:10;14.20;99.90
322;DHT22;148;51.480;7.208;2024-02-16T23:02:55;14.30;99.90
322;DHT22;148;51.480;7.208;2024-02-16T23:05:21;14.30;99.90
322;DHT22;148;51.480;7.208;2024-02-16T23:07:47;14.40;99.90
322;DHT22;148;51.480;7.208;2024-02-16T23:10:14;14.40;99.90
322;DHT22;148;51.480;7.208;2024-02-16T23:12:40;14.40;99.90
322;DHT22;148;51.480;7.208;2024-02-16T23:15:15;14.30;99.90
322;DHT22;148;51.480;7.208;2024-02-16T23:17:45;14.30;99.90
322;DHT22;148;51.480;7.208;2024-02-16T23:20:15;14.20;99.90
322;DHT22;148;51.480;7.208;2024-02-16T23:23:07;14.10;99.90
322;DHT22;148;51.480;7.208;2024-02-16T23:25:38;14.10;99.90
322;DHT22;148;51.480;7.208;2024-02-16T23:28:14;14.00;99.90
322;DHT22;148;51.480;7.208;2024-02-16T23:30:41;13.90;99.90
322;DHT22;148;51.480;7.208;2024-02-16T23:33:08;13.90;99.90
